Freeman Spur, Illinois
Current Conditions -  °F | °C
As of 4:50 PM on Wednesday 17 Dec 2014 (Local Time) from KMWA Reporting Station
Scattered Clouds Scattered Clouds  
Wind Chill: 33°   Ceiling: Unl
Heat Index: 37°   Visibility: 20mi
Dew Point: 27°   Wind: 6mph
Humidity: 65%   Direction: 340°NNW
Pressure: 30.31"   Gusts: NA
Location:  37.86°N, 89°W
Report Text: KMWA 172250Z 34005KT 20SM SCT120 03/M03 A3031
Loading
Personal Weather Stations






























Interactive Weather Map New forecast layout! Learn more

10-Day Weather Forecast

Advertisements
Track Severe Weather on mobile